Honey Creek, Illinois
Current Conditions -  °F | °C
As of 1:35 PM on Tuesday 21 Oct 2014 (Local Time) from KRPJ Reporting Station
Overcast Overcast  
Wind Chill: 53°   Ceiling: 3900
Heat Index: 53°   Visibility: 10mi
Dew Point: 38°   Wind: 9mph
Humidity: 56%   Direction: 40°NE
Pressure: 30.2"   Gusts: NA
Location:  41.9937°N, 89.1961°W
Report Text: KRPJ 211835Z AUTO 04008KT 10SM OVC039 12/03 A3020 RMK AO2 T01180032
Loading
Personal Weather Stations






























Interactive Weather Map
Tropical Storm Tracking
New forecast layout! Learn more

10-Day Weather Forecast

Advertisements
Track Severe Weather on mobile